Canefield Airport

Fair
30oC (86oF)

Fair


Winds: Southerly @ 02kts/ 04km/h

Humidity: 75%

Barometric Pressure: 1011 mb

Accumulated Rainfall for September: 91.7 mm

Updated: 18:00 local time (22:00 UTC)

Douglas-Charles Airport

Fair
29oC (84oF)

Fair


Winds: East south easterly @ 04kts / 07km/h

Humidity: 80%

Barometric Pressure: 1013 mb

Accumulated Rainfall for September: 139.1 mm

Updated: 18:00 local time (22:00 UTC)

Satellite Imagery

Satellite Imagery
Click image for larger view. (Source: National Hurricane Center).

Aviation Routine Report (METAR)

Douglas-Charles: METAR TDPD 232200Z 12004KT 9999 FEW020 29/25 Q1013=
Canefield: METAR TDCF 232200Z 18002KT 9999 FEW019 FEW///CB 30/25 Q1011=